Topeka, Kansas
Current Conditions -  °F | °C
As of 8:53 PM on Wednesday 22 Oct 2014 (Local Time) from KTOP Reporting Station
Few Clouds Few Clouds  
Wind Chill: 68°   Ceiling: Unl
Heat Index: 68°   Visibility: 10mi
Dew Point: 58°   Wind: 10mph
Humidity: 70%   Direction: 140°SE
Pressure: 30.08"   Gusts: NA
Location:  39.06°N, 95.68°W
Report Text: KTOP 230153Z AUTO 14009KT 10SM FEW060 20/14 A3008 RMK AO2 SLP180 T02000144
Loading
Personal Weather Stations






























Interactive Weather Map
Tropical Storm Tracking
New forecast layout! Learn more

10-Day Weather Forecast

Advertisements
Track Severe Weather on mobile